AAY21 KSMX-KLAS
Flight info
| Callsign | AAY21 |
|---|---|
| Flight time | 0h 56m |
| Altitude | 37000 |
| Route | BUELT4 RZS PMD HELDE DAG MISEN RNDRZ4 |
| Aircraft | A319/M-SDE3FGHIRWY/LB1 |
Departure
| Time | 2026-04-15 13:39 |
|---|---|
| Airport | Santa Maria Public Airport Captain G Allan Hancock Field (KSMX) |
Arrival
| Time | 2026-04-15 14:36 |
|---|---|
| Airport | Harry Reid International Airport (KLAS) |
| Time | Latitude | Longitude | Altitude | Speed | Heading |
|---|---|---|---|---|---|
| 2026-04-15 13:06 | 34.89876 | -120.44831 | 243 ft | 0 kts | 42° |
| 2026-04-15 13:29 | 34.89860 | -120.44851 | 242 ft | 4 kts | 56° |
| 2026-04-15 13:30 | 34.89850 | -120.44879 | 241 ft | 4 kts | 95° |
| 2026-04-15 13:30 | 34.89856 | -120.44899 | 241 ft | 1 kts | 135° |
| 2026-04-15 13:30 | 34.89859 | -120.44901 | 241 ft | 0 kts | 135° |
| 2026-04-15 13:33 | 34.89858 | -120.44901 | 241 ft | 1 kts | 135° |
| 2026-04-15 13:33 | 34.89829 | -120.44867 | 242 ft | 8 kts | 136° |
| 2026-04-15 13:33 | 34.89806 | -120.44839 | 243 ft | 0 kts | 136° |
| 2026-04-15 13:34 | 34.89804 | -120.44837 | 243 ft | 3 kts | 136° |
| 2026-04-15 13:35 | 34.89772 | -120.44799 | 245 ft | 6 kts | 136° |
| 2026-04-15 13:35 | 34.89747 | -120.44770 | 247 ft | 4 kts | 136° |
| 2026-04-15 13:35 | 34.89731 | -120.44751 | 248 ft | 4 kts | 136° |
| 2026-04-15 13:35 | 34.89704 | -120.44745 | 248 ft | 4 kts | 192° |
| 2026-04-15 13:36 | 34.89682 | -120.44764 | 249 ft | 4 kts | 219° |
| 2026-04-15 13:36 | 34.89656 | -120.44774 | 249 ft | 4 kts | 177° |
| 2026-04-15 13:36 | 34.89637 | -120.44761 | 250 ft | 3 kts | 145° |
| 2026-04-15 13:36 | 34.89623 | -120.44747 | 250 ft | 5 kts | 136° |
| 2026-04-15 13:37 | 34.89559 | -120.44671 | 255 ft | 12 kts | 135° |
| 2026-04-15 13:37 | 34.89507 | -120.44609 | 258 ft | 9 kts | 135° |
| 2026-04-15 13:37 | 34.89465 | -120.44559 | 260 ft | 8 kts | 135° |
| 2026-04-15 13:37 | 34.89420 | -120.44524 | 261 ft | 8 kts | 161° |
| 2026-04-15 13:38 | 34.89367 | -120.44522 | 261 ft | 8 kts | 186° |
| 2026-04-15 13:38 | 34.89307 | -120.44541 | 261 ft | 10 kts | 212° |
| 2026-04-15 13:38 | 34.89307 | -120.44618 | 259 ft | 12 kts | 306° |
| 2026-04-15 13:38 | 34.89444 | -120.44782 | 253 ft | 63 kts | 316° |
| 2026-04-15 13:39 | 34.89949 | -120.45384 | 232 ft | 135 kts | 315° |
| 2026-04-15 13:39 | 34.90739 | -120.46317 | 472 ft | 166 kts | 316° |
| 2026-04-15 13:39 | 34.91547 | -120.47314 | 1238 ft | 164 kts | 316° |
| 2026-04-15 13:39 | 34.92521 | -120.47958 | 1934 ft | 164 kts | 354° |
| 2026-04-15 13:40 | 34.93677 | -120.47612 | 2290 ft | 186 kts | 34° |
| 2026-04-15 13:40 | 34.94473 | -120.46297 | 2609 ft | 211 kts | 71° |
| 2026-04-15 13:40 | 34.94482 | -120.44403 | 3066 ft | 234 kts | 106° |
| 2026-04-15 13:40 | 34.93595 | -120.42738 | 3819 ft | 246 kts | 137° |
| 2026-04-15 13:41 | 34.92038 | -120.41800 | 4626 ft | 253 kts | 169° |
| 2026-04-15 13:41 | 34.90277 | -120.41920 | 5415 ft | 257 kts | 197° |
| 2026-04-15 13:41 | 34.88579 | -120.42507 | 6247 ft | 257 kts | 195° |
| 2026-04-15 13:41 | 34.86820 | -120.42944 | 7048 ft | 260 kts | 185° |
| 2026-04-15 13:42 | 34.85029 | -120.42619 | 7868 ft | 263 kts | 162° |
| 2026-04-15 13:42 | 34.83439 | -120.41505 | 8707 ft | 266 kts | 144° |
| 2026-04-15 13:42 | 34.81982 | -120.40108 | 9556 ft | 268 kts | 142° |
| 2026-04-15 13:42 | 34.80534 | -120.38677 | 10379 ft | 270 kts | 142° |
| 2026-04-15 13:43 | 34.79071 | -120.37223 | 11175 ft | 273 kts | 142° |
| 2026-04-15 13:43 | 34.77591 | -120.35751 | 12009 ft | 276 kts | 142° |
| 2026-04-15 13:43 | 34.76100 | -120.34268 | 12848 ft | 278 kts | 142° |
| 2026-04-15 13:43 | 34.74601 | -120.32775 | 13710 ft | 278 kts | 142° |
| 2026-04-15 13:44 | 34.73105 | -120.31282 | 14507 ft | 278 kts | 142° |
| 2026-04-15 13:44 | 34.71640 | -120.29752 | 15302 ft | 278 kts | 133° |
| 2026-04-15 13:44 | 34.70717 | -120.27737 | 16107 ft | 273 kts | 105° |
| 2026-04-15 13:44 | 34.70139 | -120.25498 | 16567 ft | 288 kts | 111° |
| 2026-04-15 13:45 | 34.69295 | -120.23211 | 16752 ft | 311 kts | 116° |
| 2026-04-15 13:45 | 34.68256 | -120.20752 | 16910 ft | 335 kts | 118° |
| 2026-04-15 13:45 | 34.67149 | -120.18197 | 17059 ft | 357 kts | 117° |
| 2026-04-15 13:47 | 34.58927 | -119.97469 | 20687 ft | 404 kts | 115° |
| 2026-04-15 13:47 | 34.57722 | -119.94376 | 21274 ft | 407 kts | 115° |
| 2026-04-15 13:47 | 34.56504 | -119.91261 | 21858 ft | 410 kts | 115° |
| 2026-04-15 13:48 | 34.55276 | -119.88128 | 22435 ft | 413 kts | 115° |
| 2026-04-15 13:48 | 34.54037 | -119.84960 | 23007 ft | 417 kts | 115° |
| 2026-04-15 13:48 | 34.52800 | -119.81766 | 23575 ft | 420 kts | 112° |
| 2026-04-15 13:48 | 34.51859 | -119.78412 | 24036 ft | 422 kts | 103° |
| 2026-04-15 13:49 | 34.51386 | -119.74893 | 24477 ft | 424 kts | 93° |
| 2026-04-15 13:49 | 34.51405 | -119.71322 | 24900 ft | 425 kts | 83° |
| 2026-04-15 13:49 | 34.51696 | -119.67745 | 25323 ft | 428 kts | 83° |
| 2026-04-15 13:49 | 34.51981 | -119.64140 | 25744 ft | 431 kts | 83° |
| 2026-04-15 13:50 | 34.52260 | -119.60513 | 26157 ft | 434 kts | 83° |
| 2026-04-15 13:50 | 34.52535 | -119.56856 | 26567 ft | 437 kts | 83° |
| 2026-04-15 13:50 | 34.52718 | -119.54419 | 26834 ft | 439 kts | 83° |
| 2026-04-15 13:50 | 34.52998 | -119.50723 | 27259 ft | 441 kts | 83° |
| 2026-04-15 13:51 | 34.53283 | -119.47009 | 27661 ft | 444 kts | 83° |
| 2026-04-15 13:51 | 34.53665 | -119.42052 | 28193 ft | 448 kts | 83° |
| 2026-04-15 13:51 | 34.53951 | -119.38278 | 28588 ft | 450 kts | 83° |
| 2026-04-15 13:51 | 34.54232 | -119.34484 | 28960 ft | 453 kts | 83° |
| 2026-04-15 13:52 | 34.54422 | -119.31907 | 29217 ft | 455 kts | 83° |
| 2026-04-15 13:52 | 34.54705 | -119.28073 | 29587 ft | 458 kts | 83° |
| 2026-04-15 13:52 | 34.54990 | -119.24210 | 29956 ft | 461 kts | 83° |
| 2026-04-15 13:52 | 34.55272 | -119.20382 | 30318 ft | 462 kts | 83° |
| 2026-04-15 13:53 | 34.55556 | -119.16490 | 30642 ft | 464 kts | 84° |
| 2026-04-15 13:53 | 34.55842 | -119.12569 | 30954 ft | 466 kts | 84° |
| 2026-04-15 13:53 | 34.56130 | -119.08651 | 31267 ft | 468 kts | 84° |
| 2026-04-15 13:53 | 34.56419 | -119.04709 | 31573 ft | 469 kts | 84° |
| 2026-04-15 13:54 | 34.56707 | -119.00765 | 31961 ft | 469 kts | 84° |
| 2026-04-15 13:54 | 34.56989 | -118.96832 | 32420 ft | 467 kts | 84° |
| 2026-04-15 13:54 | 34.57268 | -118.92915 | 32887 ft | 465 kts | 84° |
| 2026-04-15 13:54 | 34.57545 | -118.89016 | 33361 ft | 463 kts | 84° |
| 2026-04-15 13:55 | 34.57821 | -118.85129 | 33812 ft | 461 kts | 84° |
| 2026-04-15 13:55 | 34.58093 | -118.81256 | 34229 ft | 460 kts | 84° |
| 2026-04-15 13:55 | 34.58365 | -118.77391 | 34600 ft | 459 kts | 84° |
| 2026-04-15 13:55 | 34.58633 | -118.73536 | 34988 ft | 458 kts | 84° |
| 2026-04-15 13:56 | 34.58901 | -118.69690 | 35335 ft | 457 kts | 84° |
| 2026-04-15 13:56 | 34.59169 | -118.65857 | 35683 ft | 456 kts | 83° |
| 2026-04-15 13:56 | 34.59435 | -118.62064 | 36009 ft | 455 kts | 83° |
| 2026-04-15 13:56 | 34.59702 | -118.58243 | 36338 ft | 455 kts | 83° |
| 2026-04-15 13:57 | 34.59966 | -118.54405 | 36659 ft | 454 kts | 83° |
| 2026-04-15 13:57 | 34.60226 | -118.50575 | 36972 ft | 454 kts | 83° |
| 2026-04-15 13:57 | 34.60481 | -118.46760 | 37088 ft | 453 kts | 83° |
| 2026-04-15 13:57 | 34.60735 | -118.42952 | 37106 ft | 452 kts | 83° |
| 2026-04-15 13:58 | 34.61240 | -118.35382 | 37116 ft | 451 kts | 83° |
| 2026-04-15 13:58 | 34.61741 | -118.27797 | 37110 ft | 450 kts | 83° |
| 2026-04-15 13:59 | 34.62237 | -118.20222 | 37110 ft | 450 kts | 83° |
| 2026-04-15 13:59 | 34.62733 | -118.12639 | 37108 ft | 450 kts | 83° |
| 2026-04-15 14:00 | 34.63229 | -118.05057 | 37124 ft | 450 kts | 82° |
| 2026-04-15 14:00 | 34.63980 | -117.97514 | 37125 ft | 449 kts | 79° |
| 2026-04-15 14:01 | 34.65336 | -117.86327 | 37111 ft | 448 kts | 79° |
| 2026-04-15 14:02 | 34.66175 | -117.78817 | 37099 ft | 448 kts | 80° |
| 2026-04-15 14:02 | 34.66962 | -117.71300 | 37073 ft | 448 kts | 80° |
| 2026-04-15 14:03 | 34.67751 | -117.63788 | 37116 ft | 448 kts | 80° |
| 2026-04-15 14:03 | 34.68551 | -117.56267 | 37130 ft | 448 kts | 80° |
| 2026-04-15 14:04 | 34.69352 | -117.48759 | 37144 ft | 448 kts | 80° |
| 2026-04-15 14:04 | 34.70150 | -117.41253 | 37155 ft | 448 kts | 79° |
| 2026-04-15 14:05 | 34.71827 | -117.34041 | 37153 ft | 442 kts | 65° |
| 2026-04-15 14:05 | 34.74088 | -117.27088 | 37135 ft | 443 kts | 66° |
| 2026-04-15 14:06 | 34.76334 | -117.20112 | 37117 ft | 443 kts | 66° |
| 2026-04-15 14:06 | 34.78564 | -117.13186 | 37099 ft | 443 kts | 66° |
| 2026-04-15 14:07 | 34.80815 | -117.06211 | 37097 ft | 443 kts | 66° |
| 2026-04-15 14:07 | 34.83064 | -116.99222 | 37106 ft | 443 kts | 66° |
| 2026-04-15 14:08 | 34.85303 | -116.92231 | 37116 ft | 443 kts | 66° |
| 2026-04-15 14:08 | 34.87531 | -116.85233 | 37081 ft | 444 kts | 66° |
| 2026-04-15 14:08 | 34.88648 | -116.81729 | 36809 ft | 443 kts | 66° |
| 2026-04-15 14:09 | 34.89764 | -116.78233 | 36549 ft | 442 kts | 66° |
| 2026-04-15 14:09 | 34.90881 | -116.74734 | 35823 ft | 445 kts | 66° |
| 2026-04-15 14:09 | 34.92009 | -116.71201 | 34995 ft | 449 kts | 66° |
| 2026-04-15 14:09 | 34.93130 | -116.67685 | 34131 ft | 454 kts | 66° |
| 2026-04-15 14:10 | 34.94272 | -116.64087 | 33198 ft | 456 kts | 66° |
| 2026-04-15 14:10 | 34.95463 | -116.60532 | 32683 ft | 448 kts | 62° |
| 2026-04-15 14:10 | 34.97012 | -116.57270 | 32080 ft | 441 kts | 52° |
| 2026-04-15 14:10 | 34.98951 | -116.54417 | 31509 ft | 434 kts | 43° |
| 2026-04-15 14:11 | 35.01066 | -116.51817 | 30937 ft | 430 kts | 43° |
| 2026-04-15 14:11 | 35.03134 | -116.49256 | 30382 ft | 427 kts | 43° |
| 2026-04-15 14:11 | 35.05206 | -116.46682 | 29777 ft | 423 kts | 43° |
| 2026-04-15 14:11 | 35.07256 | -116.44127 | 29223 ft | 418 kts | 43° |
| 2026-04-15 14:12 | 35.09278 | -116.41597 | 28680 ft | 414 kts | 43° |
| 2026-04-15 14:12 | 35.11282 | -116.39081 | 28145 ft | 410 kts | 44° |
| 2026-04-15 14:12 | 35.13244 | -116.36573 | 27617 ft | 406 kts | 44° |
| 2026-04-15 14:12 | 35.15147 | -116.34106 | 27119 ft | 403 kts | 45° |
| 2026-04-15 14:13 | 35.17055 | -116.31619 | 26639 ft | 400 kts | 45° |
| 2026-04-15 14:13 | 35.18951 | -116.29144 | 26149 ft | 398 kts | 45° |
| 2026-04-15 14:13 | 35.20840 | -116.26686 | 25673 ft | 396 kts | 44° |
| 2026-04-15 14:13 | 35.22731 | -116.24234 | 25199 ft | 395 kts | 44° |
| 2026-04-15 14:14 | 35.24589 | -116.21769 | 24733 ft | 393 kts | 45° |
| 2026-04-15 14:14 | 35.26412 | -116.19287 | 24259 ft | 391 kts | 46° |
| 2026-04-15 14:14 | 35.28214 | -116.16799 | 23801 ft | 390 kts | 46° |
| 2026-04-15 14:14 | 35.30005 | -116.14311 | 23293 ft | 388 kts | 46° |
| 2026-04-15 14:15 | 35.31788 | -116.11838 | 22821 ft | 385 kts | 46° |
| 2026-04-15 14:15 | 35.33562 | -116.09390 | 22365 ft | 382 kts | 46° |
| 2026-04-15 14:15 | 35.35319 | -116.06968 | 21893 ft | 379 kts | 46° |
| 2026-04-15 14:15 | 35.37069 | -116.04561 | 21425 ft | 376 kts | 46° |
| 2026-04-15 14:16 | 35.38804 | -116.02180 | 20951 ft | 374 kts | 46° |
| 2026-04-15 14:16 | 35.40533 | -115.99806 | 20498 ft | 372 kts | 46° |
| 2026-04-15 14:16 | 35.42249 | -115.97445 | 20012 ft | 370 kts | 46° |
| 2026-04-15 14:16 | 35.43958 | -115.95091 | 19554 ft | 368 kts | 46° |
| 2026-04-15 14:17 | 35.45658 | -115.92750 | 19075 ft | 367 kts | 46° |
| 2026-04-15 14:17 | 35.47330 | -115.90441 | 18615 ft | 366 kts | 46° |
| 2026-04-15 14:17 | 35.49016 | -115.88103 | 18069 ft | 366 kts | 46° |
| 2026-04-15 14:17 | 35.50700 | -115.85772 | 17568 ft | 364 kts | 46° |
| 2026-04-15 14:18 | 35.52357 | -115.83476 | 17120 ft | 353 kts | 46° |
| 2026-04-15 14:18 | 35.53962 | -115.81251 | 16703 ft | 346 kts | 46° |
| 2026-04-15 14:18 | 35.55554 | -115.79044 | 16276 ft | 344 kts | 46° |
| 2026-04-15 14:18 | 35.57119 | -115.76870 | 16122 ft | 334 kts | 46° |
| 2026-04-15 14:19 | 35.58627 | -115.74771 | 15772 ft | 324 kts | 46° |
| 2026-04-15 14:19 | 35.60114 | -115.72726 | 15509 ft | 320 kts | 46° |
| 2026-04-15 14:19 | 35.61604 | -115.70711 | 15265 ft | 318 kts | 45° |
| 2026-04-15 14:19 | 35.63096 | -115.68710 | 15028 ft | 317 kts | 45° |
| 2026-04-15 14:20 | 35.64585 | -115.66716 | 14776 ft | 316 kts | 45° |
| 2026-04-15 14:20 | 35.66067 | -115.64728 | 14534 ft | 315 kts | 45° |
| 2026-04-15 14:20 | 35.67541 | -115.62743 | 14306 ft | 314 kts | 45° |
| 2026-04-15 14:20 | 35.69007 | -115.60763 | 14070 ft | 313 kts | 45° |
| 2026-04-15 14:21 | 35.70471 | -115.58785 | 13824 ft | 312 kts | 46° |
| 2026-04-15 14:21 | 35.71929 | -115.56815 | 13558 ft | 310 kts | 45° |
| 2026-04-15 14:21 | 35.73560 | -115.55104 | 13294 ft | 307 kts | 32° |
| 2026-04-15 14:21 | 35.75395 | -115.53783 | 13035 ft | 305 kts | 27° |
| 2026-04-15 14:22 | 35.77235 | -115.52502 | 12950 ft | 302 kts | 28° |
| 2026-04-15 14:22 | 35.79072 | -115.51219 | 13012 ft | 305 kts | 28° |
| 2026-04-15 14:22 | 35.80915 | -115.49929 | 13014 ft | 305 kts | 28° |
| 2026-04-15 14:22 | 35.82760 | -115.48634 | 13019 ft | 305 kts | 28° |
| 2026-04-15 14:23 | 35.84604 | -115.47341 | 13014 ft | 305 kts | 28° |
| 2026-04-15 14:23 | 35.86453 | -115.46044 | 13015 ft | 306 kts | 28° |
| 2026-04-15 14:23 | 35.88303 | -115.44744 | 13014 ft | 306 kts | 28° |
| 2026-04-15 14:23 | 35.90148 | -115.43441 | 13014 ft | 306 kts | 28° |
| 2026-04-15 14:24 | 35.92002 | -115.42136 | 12812 ft | 308 kts | 28° |
| 2026-04-15 14:24 | 35.93832 | -115.40855 | 12413 ft | 305 kts | 28° |
| 2026-04-15 14:24 | 35.95674 | -115.39571 | 12057 ft | 303 kts | 28° |
| 2026-04-15 14:24 | 35.97508 | -115.38298 | 11711 ft | 301 kts | 28° |
| 2026-04-15 14:25 | 35.99237 | -115.36846 | 11366 ft | 302 kts | 42° |
| 2026-04-15 14:25 | 36.00533 | -115.34821 | 11022 ft | 300 kts | 61° |
| 2026-04-15 14:25 | 36.01248 | -115.32428 | 10753 ft | 297 kts | 79° |
| 2026-04-15 14:25 | 36.01358 | -115.29899 | 10502 ft | 294 kts | 95° |
| 2026-04-15 14:26 | 36.01228 | -115.27377 | 10245 ft | 293 kts | 94° |
| 2026-04-15 14:26 | 36.01103 | -115.24875 | 9996 ft | 291 kts | 95° |
| 2026-04-15 14:26 | 36.00979 | -115.22388 | 9724 ft | 289 kts | 94° |
| 2026-04-15 14:26 | 36.00857 | -115.19912 | 9469 ft | 288 kts | 95° |
| 2026-04-15 14:27 | 36.00737 | -115.17490 | 9353 ft | 276 kts | 94° |
| 2026-04-15 14:27 | 36.00622 | -115.15169 | 9232 ft | 265 kts | 95° |
| 2026-04-15 14:27 | 36.00512 | -115.12939 | 9102 ft | 255 kts | 95° |
| 2026-04-15 14:27 | 36.00404 | -115.10797 | 8972 ft | 245 kts | 95° |
| 2026-04-15 14:28 | 36.00300 | -115.08744 | 8836 ft | 235 kts | 95° |
| 2026-04-15 14:28 | 36.00197 | -115.06736 | 8523 ft | 234 kts | 95° |
| 2026-04-15 14:28 | 36.00095 | -115.04761 | 8198 ft | 233 kts | 95° |
| 2026-04-15 14:28 | 35.99991 | -115.02769 | 7895 ft | 232 kts | 95° |
| 2026-04-15 14:29 | 35.99897 | -115.00786 | 7601 ft | 231 kts | 94° |
| 2026-04-15 14:29 | 35.99861 | -114.98797 | 7270 ft | 232 kts | 92° |
| 2026-04-15 14:29 | 35.99884 | -114.96799 | 6979 ft | 232 kts | 90° |
| 2026-04-15 14:29 | 35.99936 | -114.94805 | 6701 ft | 232 kts | 90° |
| 2026-04-15 14:30 | 35.99993 | -114.92820 | 6414 ft | 231 kts | 90° |
| 2026-04-15 14:30 | 35.99916 | -114.90852 | 6113 ft | 229 kts | 95° |
| 2026-04-15 14:30 | 36.00222 | -114.88933 | 5804 ft | 231 kts | 63° |
| 2026-04-15 14:30 | 36.01287 | -114.87466 | 5484 ft | 232 kts | 37° |
| 2026-04-15 14:31 | 36.02773 | -114.86787 | 5189 ft | 229 kts | 1° |
| 2026-04-15 14:31 | 36.04299 | -114.87205 | 5048 ft | 224 kts | 335° |
| 2026-04-15 14:31 | 36.05650 | -114.88037 | 4976 ft | 210 kts | 327° |
| 2026-04-15 14:31 | 36.06588 | -114.89335 | 4988 ft | 202 kts | 290° |
| 2026-04-15 14:32 | 36.06851 | -114.91010 | 4998 ft | 198 kts | 272° |
| 2026-04-15 14:32 | 36.06942 | -114.92703 | 4993 ft | 197 kts | 271° |
| 2026-04-15 14:32 | 36.07013 | -114.94367 | 4993 ft | 197 kts | 271° |
| 2026-04-15 14:32 | 36.07083 | -114.96051 | 4991 ft | 196 kts | 271° |
| 2026-04-15 14:33 | 36.07153 | -114.97733 | 4997 ft | 196 kts | 271° |
| 2026-04-15 14:33 | 36.07265 | -114.99393 | 4715 ft | 193 kts | 272° |
| 2026-04-15 14:33 | 36.07337 | -115.01047 | 4218 ft | 193 kts | 270° |
| 2026-04-15 14:33 | 36.07358 | -115.02703 | 3774 ft | 191 kts | 269° |
| 2026-04-15 14:34 | 36.07364 | -115.04324 | 3465 ft | 185 kts | 269° |
| 2026-04-15 14:34 | 36.07366 | -115.05879 | 3207 ft | 175 kts | 269° |
| 2026-04-15 14:34 | 36.07367 | -115.07291 | 2968 ft | 155 kts | 269° |
| 2026-04-15 14:34 | 36.07367 | -115.08560 | 2755 ft | 143 kts | 270° |
| 2026-04-15 14:35 | 36.07366 | -115.09764 | 2561 ft | 138 kts | 270° |
| 2026-04-15 14:35 | 36.07366 | -115.10941 | 2375 ft | 136 kts | 270° |
| 2026-04-15 14:35 | 36.07365 | -115.12103 | 2296 ft | 135 kts | 270° |
| 2026-04-15 14:35 | 36.07365 | -115.13273 | 2125 ft | 132 kts | 270° |
| 2026-04-15 14:36 | 36.07364 | -115.14222 | 2126 ft | 76 kts | 269° |
| 2026-04-15 14:36 | 36.07362 | -115.14605 | 2126 ft | 21 kts | 271° |
| 2026-04-15 14:36 | 36.07365 | -115.14699 | 2125 ft | 11 kts | 275° |
| 2026-04-15 14:36 | 36.07392 | -115.14859 | 2125 ft | 22 kts | 288° |
| 2026-04-15 14:37 | 36.07463 | -115.15034 | 2121 ft | 24 kts | 302° |
| 2026-04-15 14:37 | 36.07582 | -115.15165 | 2125 ft | 22 kts | 334° |
| 2026-04-15 14:37 | 36.07698 | -115.15229 | 2126 ft | 14 kts | 335° |
| 2026-04-15 14:37 | 36.07742 | -115.15255 | 2127 ft | 0 kts | 333° |
| 2026-04-15 14:38 | 36.07743 | -115.15256 | 2127 ft | 1 kts | 333° |
| 2026-04-15 14:38 | 36.07762 | -115.15268 | 2127 ft | 9 kts | 333° |
| 2026-04-15 14:38 | 36.07821 | -115.15305 | 2129 ft | 10 kts | 333° |
| 2026-04-15 14:39 | 36.07890 | -115.15344 | 2128 ft | 12 kts | 336° |
| 2026-04-15 14:39 | 36.07981 | -115.15393 | 2127 ft | 16 kts | 336° |
| 2026-04-15 14:39 | 36.08070 | -115.15443 | 2126 ft | 12 kts | 343° |
| 2026-04-15 14:39 | 36.08159 | -115.15430 | 2127 ft | 10 kts | 13° |
| 2026-04-15 14:40 | 36.08176 | -115.15422 | 2125 ft | 0 kts | 19° |
| 2026-04-15 14:40 | 36.08180 | -115.15421 | 2127 ft | 2 kts | 15° |
| 2026-04-15 14:40 | 36.08217 | -115.15415 | 2125 ft | 8 kts | 11° |
| 2026-04-15 14:40 | 36.08246 | -115.15372 | 2122 ft | 1 kts | 65° |
| 2026-04-15 14:41 | 36.08251 | -115.15355 | 2123 ft | 1 kts | 67° |
| 2026-04-15 14:41 | 36.08254 | -115.15347 | 2121 ft | 0 kts | 66° |